Thursday, April 26, 2018, 4:48 PM EDT
Back to Local

KCJR, Culpeper, Culpeper County Airport

Location: Elkwood, VA, United States Lat: 38.527
Local Time: 4:48 PM EDT (20:48 GMT) Lon: -77.859
Time Zone: US/Eastern Elev: 311 ft

Show me the last for .
Show Decoded

2018-04-26 16:35 METAR KCJR 262035Z AUTO 00000KT 7SM CLR 22/01 A2983 RMK AO2 T02210006 =
2018-04-26 16:15 METAR KCJR 262015Z AUTO 06003KT 10SM CLR 22/00 A2983 RMK AO2 T02160004 =
2018-04-26 15:55 METAR KCJR 261955Z AUTO 15005KT 10SM CLR 22/01 A2984 RMK AO2 T02200012 =
2018-04-26 15:35 METAR KCJR 261935Z AUTO 24003KT 10SM CLR 22/00 A2985 RMK AO2 T02160001 =
2018-04-26 15:15 METAR KCJR 261915Z AUTO 17005KT 10SM CLR 22/01 A2985 RMK AO2 T02170008 =
2018-04-26 14:55 METAR KCJR 261855Z AUTO 00000KT 10SM CLR 22/01 A2986 RMK AO2 T02180013 =
2018-04-26 14:35 METAR KCJR 261835Z AUTO 00000KT 10SM CLR 21/01 A2986 RMK AO2 T02110010 =
2018-04-26 14:15 METAR KCJR 261815Z AUTO 28003KT 10SM CLR 21/02 A2986 RMK AO2 T02080022 =
2018-04-26 13:55 METAR KCJR 261755Z AUTO 35003KT 10SM CLR 20/01 A2986 RMK AO2 T02030011 10207
                 20125 =
2018-04-26 13:35 METAR KCJR 261735Z AUTO 27006KT 10SM CLR 20/02 A2987 RMK AO2 T02020015 =
2018-04-26 13:15 METAR KCJR 261715Z AUTO 22004KT 10SM CLR 20/02 A2987 RMK AO2 T01980019 =
2018-04-26 12:55 METAR KCJR 261655Z AUTO 30008KT 10SM CLR 19/02 A2988 RMK AO2 T01940023 =
2018-04-26 12:35 METAR KCJR 261635Z AUTO 24005KT 10SM CLR 19/02 A2989 RMK AO2 T01880022 =
2018-04-26 12:15 METAR KCJR 261615Z AUTO 32004KT 10SM CLR 18/01 A2990 RMK AO2 T01810013 =
2018-04-26 11:55 METAR KCJR 261555Z AUTO 31004KT 10SM CLR 18/01 A2990 RMK AO2 T01810013 =
2018-04-26 11:35 METAR KCJR 261535Z AUTO 25004KT 10SM CLR 17/02 A2991 RMK AO2 T01740024 =
2018-04-26 11:15 METAR KCJR 261515Z AUTO 30005KT 10SM CLR 17/02 A2990 RMK AO2 T01730024 =
2018-04-26 10:55 METAR KCJR 261455Z AUTO 35007KT 10SM CLR 17/02 A2990 RMK AO2 T01650019 =
2018-04-26 10:35 METAR KCJR 261435Z AUTO 31008G15KT 10SM CLR 16/02 A2990 RMK AO2 T01560017 =
2018-04-26 10:15 METAR KCJR 261415Z AUTO 32005KT 10SM CLR 15/03 A2990 RMK AO2 T01530025 =
2018-04-26 09:55 METAR KCJR 261355Z AUTO 31005KT 10SM CLR 15/03 A2991 RMK AO2 T01450025 =
2018-04-26 09:35 METAR KCJR 261335Z AUTO 33007KT 290V350 10SM CLR 14/02 A2991 RMK AO2 T01390019 =
2018-04-26 09:15 METAR KCJR 261315Z AUTO 31008KT 10SM CLR 14/04 A2991 RMK AO2 T01430035 =
2018-04-26 08:55 METAR KCJR 261255Z AUTO 00000KT 10SM CLR 13/02 A2991 RMK AO2 T01340022 =
2018-04-26 08:35 METAR KCJR 261235Z AUTO 34007KT 10SM CLR 13/03 A2990 RMK AO2 T01320025 =
2018-04-26 08:15 METAR KCJR 261215Z AUTO 29005KT 10SM CLR 13/03 A2990 RMK AO2 T01310028 =
2018-04-26 07:55 METAR KCJR 261155Z AUTO 00000KT 10SM CLR 12/02 A2990 RMK AO2 70012 T01240024
                 10147 20107 =
2018-04-26 07:35 METAR KCJR 261135Z AUTO 15003KT 10SM CLR 12/03 A2989 RMK AO2 T01160032 =
2018-04-26 07:15 METAR KCJR 261115Z AUTO 28004KT 10SM CLR 11/03 A2988 RMK AO2 T01100025 =
2018-04-26 06:55 METAR KCJR 261055Z AUTO 31005KT 10SM CLR 11/02 A2987 RMK AO2 T01090022 =
2018-04-26 06:35 METAR KCJR 261035Z AUTO 31004KT 10SM CLR 12/02 A2986 RMK AO2 T01150017 =
2018-04-26 06:15 METAR KCJR 261015Z AUTO 32008KT 10SM CLR 11/02 A2984 RMK AO2 T01100016 =
2018-04-26 05:55 METAR KCJR 260955Z AUTO 33005KT 10SM CLR 11/02 A2984 RMK AO2 T01110015 =
2018-04-26 05:35 METAR KCJR 260935Z AUTO 33008KT 10SM CLR 11/02 A2984 RMK AO2 T01140015 =
2018-04-26 05:15 METAR KCJR 260915Z AUTO 32006G14KT 10SM CLR 12/02 A2984 RMK AO2 T01190017 =
2018-04-26 04:55 METAR KCJR 260855Z AUTO 32007KT 10SM CLR 12/03 A2984 RMK AO2 T01190026 =
2018-04-26 04:35 METAR KCJR 260835Z AUTO 31006KT 10SM CLR 12/03 A2985 RMK AO2 T01220034 =
2018-04-26 04:15 METAR KCJR 260815Z AUTO 00000KT 10SM CLR 12/04 A2985 RMK AO2 T01210041 =
2018-04-26 03:55 METAR KCJR 260755Z AUTO 33005KT 10SM CLR 13/05 A2984 RMK AO2 T01280048 =
2018-04-26 03:35 METAR KCJR 260735Z AUTO 00000KT 10SM CLR 11/06 A2984 RMK AO2 T01100057 =
2018-04-26 03:15 METAR KCJR 260715Z AUTO 31003KT 10SM CLR 13/05 A2983 RMK AO2 T01310054 =
2018-04-26 02:55 METAR KCJR 260655Z AUTO 35004KT 10SM CLR 13/06 A2982 RMK AO2 T01330057 =
2018-04-26 02:35 METAR KCJR 260635Z AUTO 00000KT 10SM CLR 14/06 A2981 RMK AO2 T01380061 =
2018-04-26 02:15 METAR KCJR 260615Z AUTO 33004KT 10SM CLR 14/07 A2980 RMK AO2 T01410069 =
2018-04-26 01:55 METAR KCJR 260555Z AUTO 34006KT 10SM CLR 15/07 A2980 RMK AO2 T01480073 10180
                 20147 =
2018-04-26 01:35 METAR KCJR 260535Z AUTO 34007G15KT 10SM SCT048 15/08 A2979 RMK AO2 T01520077 =
2018-04-26 01:15 METAR KCJR 260515Z AUTO 36007KT 10SM BKN050 16/08 A2979 RMK AO2 T01560080 =
2018-04-26 00:55 METAR KCJR 260455Z AUTO 34007G15KT 10SM SCT050 16/08 A2978 RMK AO2 T01620082
                 401980118 =
2018-04-26 00:35 METAR KCJR 260435Z AUTO 35007KT 10SM OVC050 17/09 A2978 RMK AO2 T01650086 =
2018-04-26 00:15 METAR KCJR 260415Z AUTO 35008KT 10SM OVC050 17/09 A2977 RMK AO2 T01660090 =
2018-04-25 23:55 METAR KCJR 260355Z AUTO 35005KT 10SM SCT044 OVC050 17/09 A2978 RMK AO2 T01690091
                 =
2018-04-25 23:35 METAR KCJR 260335Z AUTO 34005G15KT 10SM BKN044 BKN050 17/09 A2977 RMK AO2
                 T01710090 =
2018-04-25 23:15 METAR KCJR 260315Z AUTO 34006KT 10SM CLR 17/09 A2977 RMK AO2 T01670091 =
2018-04-25 22:55 METAR KCJR 260255Z AUTO 35006KT 10SM SCT060 17/09 A2977 RMK AO2 T01730094 =
2018-04-25 22:35 METAR KCJR 260235Z AUTO 35007KT 10SM SCT050 BKN060 18/10 A2976 RMK AO2 LTG DSNT
                 SE T01750103 =
2018-04-25 22:15 METAR KCJR 260215Z AUTO 33004KT 10SM OVC050 18/11 A2977 RMK AO2 T01790107 =
2018-04-25 21:55 METAR KCJR 260155Z AUTO 32003KT 10SM OVC050 18/11 A2977 RMK AO2 T01800110 =
2018-04-25 21:35 METAR KCJR 260135Z AUTO 32003KT 10SM OVC060 17/13 A2976 RMK AO2 T01710130 =
2018-04-25 21:15 METAR KCJR 260115Z AUTO 00000KT 10SM OVC060 16/14 A2976 RMK AO2 T01550144 =
2018-04-25 20:55 METAR KCJR 260055Z AUTO 00000KT 10SM OVC060 16/15 A2976 RMK AO2 T01580146 =
2018-04-25 20:35 METAR KCJR 260035Z AUTO 00000KT 10SM OVC060 16/15 A2975 RMK AO2 T01600146 =
2018-04-25 20:15 METAR KCJR 260015Z AUTO 00000KT 10SM BKN060 OVC095 17/15 A2974 RMK AO2 T01650146
                 =
2018-04-25 19:55 METAR KCJR 252355Z AUTO 00000KT 10SM BKN060 BKN075 OVC090 17/15 A2974 RMK AO2
                 T01650146 10198 20162 =
2018-04-25 19:35 METAR KCJR 252335Z AUTO 00000KT 10SM SCT060 BKN075 OVC090 17/15 A2973 RMK AO2
                 T01680145 =
2018-04-25 19:15 METAR KCJR 252315Z AUTO 00000KT 10SM OVC060 17/14 A2972 RMK AO2 T01700142 =
2018-04-25 18:55 METAR KCJR 252255Z AUTO 00000KT 10SM SCT050 OVC055 17/14 A2972 RMK AO2 T01700143
                 =
2018-04-25 18:35 METAR KCJR 252235Z AUTO 00000KT 10SM SCT048 BKN050 OVC075 17/14 A2972 RMK AO2
                 T01710143 =
2018-04-25 18:15 METAR KCJR 252215Z AUTO 00000KT 10SM SCT045 SCT065 OVC075 17/15 A2971 RMK AO2
                 T01730146 =
2018-04-25 17:55 METAR KCJR 252155Z AUTO 00000KT 10SM SCT035 BKN045 OVC070 18/15 A2971 RMK AO2
                 T01750146 =
2018-04-25 17:35 METAR KCJR 252135Z AUTO 09003KT 10SM OVC035 18/15 A2971 RMK AO2 T01780145 =
2018-04-25 17:15 METAR KCJR 252115Z AUTO 10004KT 10SM BKN037 OVC043 19/15 A2970 RMK AO2 T01890146
                 =
2018-04-25 16:55 METAR KCJR 252055Z AUTO 08003KT 10SM SCT037 BKN042 OVC055 19/14 A2970 RMK AO2
                 LTG DSNT E T01860141 =

Support USWX by starting your Amazon purchase here.